Miami, Florida
Traffic Map
Current Weather Conditions
Miami, Florida
Clear
Clear
70°
Feels Like: 70°
Wind Chill: 70° Ceiling: Unl
Heat Index: 70° Visibility: 10mi
Dew Point: 59° Wind: 5mph
Humidity: 68% Direction: 270° (W)
Pressure: 29.89in Gusts: 0mph
Raw Report DataKMIA 260553Z 27004KT 10SM CLR 21/15 A2989 RMK AO2 SLP122 T02110150 10256 20206 50003
Traffic Incident Summary
Active as of:
Severity:
Category:
InformationThere was an issue retrieving the traffic information for this location. Please try a different location or try again shortly.
Advertisements
Track Severe Weather on mobile